createdAt,value
2022-09-07T00:00:10.627Z,12.80
2022-09-07T00:02:41.992Z,12.70
2022-09-07T00:05:12.110Z,12.70
2022-09-07T00:07:41.156Z,12.70
2022-09-07T00:10:10.938Z,12.70
2022-09-07T00:12:39.984Z,12.60
2022-09-07T00:15:09.695Z,12.60
2022-09-07T00:17:39.170Z,12.60
2022-09-07T00:20:10.910Z,12.60
2022-09-07T00:22:40.975Z,12.50
2022-09-07T00:25:10.956Z,12.50
2022-09-07T00:27:43.132Z,12.50
2022-09-07T00:30:12.970Z,12.50
2022-09-07T00:32:42.128Z,12.50
2022-09-07T00:35:12.741Z,12.60
2022-09-07T00:37:45.235Z,12.60
2022-09-07T00:40:13.718Z,12.50
2022-09-07T00:42:43.147Z,12.50
2022-09-07T00:45:16.940Z,12.40
2022-09-07T00:47:53.161Z,12.40
2022-09-07T00:50:27.321Z,12.40
2022-09-07T00:53:03.917Z,12.30
2022-09-07T00:55:35.947Z,12.30
2022-09-07T00:58:05.165Z,12.20
2022-09-07T01:00:33.970Z,12.20
2022-09-07T01:03:05.469Z,12.20
2022-09-07T01:05:41.431Z,12.20
2022-09-07T01:08:14.242Z,12.20
2022-09-07T01:10:42.611Z,12.10
2022-09-07T01:13:12.173Z,12.10
2022-09-07T01:15:47.774Z,12.10
2022-09-07T01:18:25.913Z,12.00
2022-09-07T01:21:19.179Z,12.00
2022-09-07T01:24:24.604Z,12.00
2022-09-07T01:27:36.767Z,11.90
2022-09-07T01:30:08.013Z,11.90
2022-09-07T01:32:56.471Z,11.90
2022-09-07T01:35:39.613Z,11.90
2022-09-07T01:38:16.159Z,11.80
2022-09-07T01:40:52.985Z,11.80
2022-09-07T01:43:31.170Z,11.80
2022-09-07T01:46:01.397Z,11.80
2022-09-07T01:48:31.994Z,11.80
2022-09-07T01:51:05.261Z,11.70
2022-09-07T01:53:39.012Z,11.70
2022-09-07T01:56:12.645Z,11.70
2022-09-07T01:58:47.209Z,11.70
2022-09-07T02:01:22.955Z,11.70
2022-09-07T02:03:57.266Z,11.70
2022-09-07T02:06:31.313Z,11.70
2022-09-07T02:09:04.361Z,11.60
2022-09-07T02:11:39.179Z,11.70
2022-09-07T02:14:12.825Z,11.60
2022-09-07T02:16:48.657Z,11.60
2022-09-07T02:19:19.427Z,11.50
2022-09-07T02:21:56.226Z,11.50
2022-09-07T02:24:29.181Z,11.40
2022-09-07T02:27:00.722Z,11.40
2022-09-07T02:29:32.547Z,11.40
2022-09-07T02:32:01.247Z,11.30
2022-09-07T02:34:29.581Z,11.30
2022-09-07T02:37:02.593Z,11.20
2022-09-07T02:39:31.349Z,11.20
2022-09-07T02:42:00.208Z,11.10
2022-09-07T02:44:36.564Z,11.10
2022-09-07T02:47:32.941Z,11.10
2022-09-07T02:50:18.899Z,11.10
2022-09-07T02:52:59.046Z,11.00
2022-09-07T02:55:39.068Z,11.00
2022-09-07T02:58:18.051Z,11.00
2022-09-07T03:00:56.998Z,10.90
2022-09-07T03:03:33.213Z,10.90
2022-09-07T03:06:06.080Z,10.90
2022-09-07T03:08:41.124Z,10.90
2022-09-07T03:11:13.699Z,10.80
2022-09-07T03:13:42.010Z,10.80
2022-09-07T03:16:15.220Z,10.80
2022-09-07T03:18:47.013Z,10.80
2022-09-07T03:21:16.608Z,10.70
2022-09-07T03:23:46.886Z,10.70
2022-09-07T03:26:25.331Z,10.70
2022-09-07T03:28:53.452Z,10.60
2022-09-07T03:31:23.221Z,10.50
2022-09-07T03:33:52.082Z,10.50
2022-09-07T03:36:23.088Z,10.40
2022-09-07T03:38:53.238Z,10.40
2022-09-07T03:41:21.210Z,10.30
2022-09-07T03:43:49.842Z,10.30
2022-09-07T03:46:19.729Z,10.20
2022-09-07T03:48:53.576Z,10.10
2022-09-07T03:51:22.018Z,10.10
2022-09-07T03:53:51.383Z,10.10
2022-09-07T03:56:22.154Z,10.00
2022-09-07T03:58:51.888Z,9.90
2022-09-07T04:01:22.313Z,9.90
2022-09-07T04:03:52.498Z,9.90
2022-09-07T04:06:21.118Z,9.80
2022-09-07T04:08:50.091Z,9.80
2022-09-07T04:11:21.645Z,9.80
2022-09-07T04:13:49.827Z,9.70
2022-09-07T04:16:20.161Z,9.60
2022-09-07T04:18:49.779Z,9.60
2022-09-07T04:21:20.085Z,9.60
2022-09-07T04:23:51.203Z,9.50
2022-09-07T04:26:21.832Z,9.50
2022-09-07T04:28:52.319Z,9.50
2022-09-07T04:31:25.065Z,9.40
2022-09-07T04:33:55.118Z,9.40
2022-09-07T04:36:25.796Z,9.40
2022-09-07T04:39:02.227Z,9.40
2022-09-07T04:41:33.092Z,9.40
2022-09-07T04:44:03.256Z,9.40
2022-09-07T04:46:36.162Z,9.40
2022-09-07T04:49:06.850Z,9.40
2022-09-07T04:51:40.256Z,9.40
2022-09-07T04:54:09.115Z,9.50
2022-09-07T04:56:37.153Z,9.50
2022-09-07T04:59:06.062Z,9.50
2022-09-07T05:01:35.131Z,9.50
2022-09-07T05:04:08.109Z,9.50
2022-09-07T05:06:37.480Z,9.60
2022-09-07T05:09:06.143Z,9.60
2022-09-07T05:11:35.186Z,9.70
2022-09-07T05:14:05.254Z,9.70
2022-09-07T05:16:37.636Z,9.80
2022-09-07T05:19:07.136Z,9.90
2022-09-07T05:21:36.925Z,9.90
2022-09-07T05:24:08.147Z,10.00
2022-09-07T05:26:40.020Z,10.00
2022-09-07T05:32:01.600Z,10.10
2022-09-07T05:34:30.550Z,10.30
2022-09-07T05:37:01.203Z,10.30
2022-09-07T05:39:30.094Z,10.30
2022-09-07T05:41:59.225Z,10.40
2022-09-07T05:44:47.385Z,10.50
2022-09-07T05:47:16.188Z,10.60
2022-09-07T05:49:44.720Z,10.70
2022-09-07T05:52:15.326Z,10.80
2022-09-07T05:54:48.053Z,10.90
2022-09-07T05:57:16.232Z,11.00
2022-09-07T05:59:44.186Z,11.10
2022-09-07T06:02:16.375Z,11.20
2022-09-07T06:04:45.167Z,11.20
2022-09-07T06:07:23.178Z,11.40
2022-09-07T06:12:48.995Z,11.60
2022-09-07T06:15:19.171Z,11.70
2022-09-07T06:17:48.868Z,11.80
2022-09-07T06:20:18.048Z,11.90
2022-09-07T06:22:48.155Z,12.00
2022-09-07T06:25:19.362Z,12.20
2022-09-07T06:27:50.076Z,12.20
2022-09-07T06:30:19.026Z,12.30
2022-09-07T06:32:47.045Z,12.40
2022-09-07T06:35:19.325Z,12.50
2022-09-07T06:37:49.081Z,12.60
2022-09-07T06:40:18.167Z,12.70
2022-09-07T06:42:47.182Z,12.70
2022-09-07T06:45:21.167Z,12.80
2022-09-07T06:47:50.185Z,12.90
2022-09-07T06:50:18.409Z,13.00
2022-09-07T06:55:46.086Z,13.20
2022-09-07T06:58:15.234Z,13.30
2022-09-07T07:00:45.215Z,13.30
2022-09-07T07:03:14.222Z,13.50
2022-09-07T07:05:42.337Z,13.50
2022-09-07T07:08:11.196Z,13.60
2022-09-07T07:10:41.069Z,13.70
2022-09-07T07:15:42.247Z,13.80
2022-09-07T07:18:20.758Z,14.00
2022-09-07T07:20:50.283Z,14.00
2022-09-07T07:23:19.168Z,14.20
2022-09-07T07:25:47.880Z,14.20
2022-09-07T07:31:12.057Z,14.40
2022-09-07T07:34:05.997Z,14.40
2022-09-07T07:36:35.727Z,14.50
2022-09-07T07:39:07.195Z,14.60
2022-09-07T07:44:21.717Z,14.70
2022-09-07T07:46:51.425Z,14.80
2022-09-07T07:49:24.268Z,14.80
2022-09-07T07:54:47.339Z,15.00
2022-09-07T07:57:16.896Z,15.10
2022-09-07T07:59:46.308Z,15.10
2022-09-07T08:02:20.259Z,15.20
2022-09-07T08:04:48.411Z,15.30
2022-09-07T08:07:17.560Z,15.30
2022-09-07T08:09:47.540Z,15.30
2022-09-07T08:12:17.598Z,15.40
2022-09-07T08:14:48.520Z,15.40
2022-09-07T08:17:19.175Z,15.50
2022-09-07T08:19:47.384Z,15.50
2022-09-07T08:22:16.220Z,15.60
2022-09-07T08:24:44.169Z,15.70
2022-09-07T08:27:16.237Z,15.70
2022-09-07T08:29:45.510Z,15.80
2022-09-07T08:32:15.105Z,15.90
2022-09-07T08:34:43.298Z,15.90
2022-09-07T08:37:12.105Z,15.90
2022-09-07T08:39:41.205Z,16.00
2022-09-07T08:42:24.085Z,16.10
2022-09-07T08:45:04.256Z,16.10
2022-09-07T08:47:39.642Z,16.20
2022-09-07T08:50:13.102Z,16.20
2022-09-07T08:52:49.052Z,16.30
2022-09-07T08:55:22.088Z,16.30
2022-09-07T08:57:58.250Z,16.30
2022-09-07T09:00:27.202Z,16.40
2022-09-07T09:06:02.315Z,16.50
2022-09-07T09:08:46.637Z,16.50
2022-09-07T09:11:24.205Z,16.50
2022-09-07T09:14:03.565Z,16.50
2022-09-07T09:16:42.760Z,16.60
2022-09-07T09:19:39.509Z,16.70
2022-09-07T09:22:16.274Z,16.70
2022-09-07T09:24:48.040Z,16.70
2022-09-07T09:27:18.239Z,16.80
2022-09-07T09:29:46.202Z,16.80
2022-09-07T09:32:36.306Z,16.90
2022-09-07T09:35:14.384Z,16.90
2022-09-07T09:37:45.243Z,16.90
2022-09-07T09:40:25.642Z,16.90
2022-09-07T09:43:03.259Z,17.00
2022-09-07T09:48:32.656Z,17.10
2022-09-07T09:53:58.219Z,17.20
2022-09-07T09:56:45.645Z,17.30
2022-09-07T10:05:34.247Z,17.50
2022-09-07T10:08:07.360Z,17.60
2022-09-07T10:10:36.164Z,17.60
2022-09-07T10:13:08.741Z,17.70
2022-09-07T10:15:40.636Z,17.70
2022-09-07T10:18:19.305Z,17.70
2022-09-07T10:20:48.883Z,17.70
2022-09-07T10:23:26.277Z,17.70
2022-09-07T10:25:55.129Z,17.80
2022-09-07T10:28:25.666Z,17.80
2022-09-07T10:31:22.308Z,17.90
2022-09-07T10:36:58.239Z,18.00
2022-09-07T10:39:34.347Z,18.10
2022-09-07T10:42:10.917Z,18.10
2022-09-07T10:44:48.268Z,18.20
2022-09-07T10:47:26.636Z,18.30
2022-09-07T10:52:53.343Z,18.40
2022-09-07T10:55:30.271Z,18.40
2022-09-07T10:58:11.223Z,18.50
2022-09-07T11:00:50.285Z,18.60
2022-09-07T11:03:35.346Z,18.70
2022-09-07T11:06:15.320Z,18.90
2022-09-07T11:09:20.334Z,18.90
2022-09-07T11:12:04.288Z,18.90
2022-09-07T11:14:38.301Z,19.10
2022-09-07T11:17:15.507Z,19.20
2022-09-07T11:19:48.081Z,19.30
2022-09-07T11:22:28.456Z,19.40
2022-09-07T11:28:03.345Z,19.60
2022-09-07T11:30:36.526Z,19.80
2022-09-07T11:33:12.364Z,19.80
2022-09-07T11:35:50.301Z,20.00
2022-09-07T11:38:50.036Z,20.00
2022-09-07T11:41:25.680Z,20.00
2022-09-07T11:44:13.541Z,20.00
2022-09-07T11:46:45.644Z,20.10
2022-09-07T11:49:20.216Z,20.10
2022-09-07T11:51:54.000Z,20.10
2022-09-07T11:54:39.313Z,20.20
2022-09-07T11:57:33.929Z,20.40
2022-09-07T12:00:10.220Z,20.50
2022-09-07T12:03:03.890Z,20.70
2022-09-07T12:05:58.316Z,20.80
2022-09-07T12:08:44.388Z,21.00
2022-09-07T12:11:38.222Z,21.10
2022-09-07T12:14:18.671Z,21.10
2022-09-07T12:17:23.691Z,21.10
2022-09-07T12:20:18.233Z,21.20
2022-09-07T12:23:05.085Z,21.30
2022-09-07T12:25:38.346Z,21.30
2022-09-07T12:28:15.174Z,21.30
2022-09-07T12:30:59.261Z,21.30
2022-09-07T12:33:32.425Z,21.40
2022-09-07T12:36:02.263Z,21.40
2022-09-07T12:39:15.397Z,21.70
2022-09-07T12:41:49.427Z,22.00
2022-09-07T12:44:27.266Z,22.10
2022-09-07T12:47:02.014Z,22.30
2022-09-07T12:49:58.630Z,22.40
2022-09-07T12:52:46.399Z,22.20
2022-09-07T12:58:52.378Z,22.30
2022-09-07T13:01:31.654Z,22.40
2022-09-07T13:04:29.445Z,22.70
2022-09-07T13:07:19.424Z,22.90
2022-09-07T13:09:58.239Z,22.90
2022-09-07T13:15:42.371Z,23.20
2022-09-07T13:18:15.275Z,23.20
2022-09-07T13:20:44.014Z,23.30
2022-09-07T13:23:31.456Z,23.50
2022-09-07T13:26:01.441Z,23.60
2022-09-07T13:28:55.897Z,23.70
2022-09-07T13:31:50.830Z,23.90
2022-09-07T13:34:39.389Z,24.10
2022-09-07T13:37:18.955Z,24.40
2022-09-07T13:39:53.292Z,24.60
2022-09-07T13:42:27.407Z,24.80
2022-09-07T13:44:58.356Z,25.00
2022-09-07T13:47:45.674Z,25.40
2022-09-07T13:50:23.872Z,26.10
2022-09-07T13:53:37.536Z,26.40
2022-09-07T13:56:23.442Z,26.80
2022-09-07T13:58:54.415Z,27.40
2022-09-07T14:01:25.435Z,28.00
2022-09-07T14:03:59.583Z,28.40
2022-09-07T14:06:35.471Z,28.80
2022-09-07T14:09:07.422Z,29.10
2022-09-07T14:11:47.065Z,29.20
2022-09-07T14:14:20.707Z,29.40
2022-09-07T14:16:55.359Z,29.70
2022-09-07T14:19:26.449Z,30.10
2022-09-07T14:21:57.314Z,30.30
2022-09-07T14:24:35.416Z,30.40
2022-09-07T14:27:11.038Z,30.90
2022-09-07T14:29:39.861Z,30.60
2022-09-07T14:32:20.436Z,30.50
2022-09-07T14:34:49.395Z,30.50
2022-09-07T14:37:21.139Z,30.00
2022-09-07T14:39:52.828Z,29.70
2022-09-07T14:42:25.508Z,29.10
2022-09-07T14:45:18.520Z,28.50
2022-09-07T14:47:49.371Z,28.70
2022-09-07T14:50:21.469Z,28.10
2022-09-07T14:55:43.423Z,27.80
2022-09-07T14:58:26.514Z,27.60
2022-09-07T15:04:19.406Z,26.90
2022-09-07T15:07:03.776Z,26.30
2022-09-07T15:09:38.475Z,25.80
2022-09-07T15:12:27.156Z,25.30
2022-09-07T15:15:00.396Z,24.90
2022-09-07T15:17:49.995Z,24.50
2022-09-07T15:20:45.098Z,24.20
2022-09-07T15:23:14.475Z,23.70
2022-09-07T15:25:48.212Z,23.50
2022-09-07T15:34:13.466Z,23.10
2022-09-07T15:36:42.872Z,23.30
2022-09-07T15:39:17.377Z,23.50
2022-09-07T15:41:45.724Z,23.80
2022-09-07T15:44:15.097Z,24.00
2022-09-07T15:47:43.199Z,24.30
2022-09-07T15:49:39.938Z,24.40
2022-09-07T15:52:10.553Z,24.60
2022-09-07T15:54:40.050Z,24.90
2022-09-07T16:00:00.229Z,24.90
2022-09-07T16:05:23.258Z,24.50
2022-09-07T16:10:44.319Z,24.10
2022-09-07T16:13:16.926Z,23.70
2022-09-07T16:15:46.481Z,23.60
2022-09-07T16:18:18.557Z,23.40
2022-09-07T16:20:52.173Z,23.30
2022-09-07T16:23:21.385Z,23.00
2022-09-07T16:26:01.556Z,22.90
2022-09-07T16:28:31.396Z,22.70
2022-09-07T16:31:00.498Z,22.50
2022-09-07T16:33:36.645Z,22.30
2022-09-07T16:36:07.489Z,22.10
2022-09-07T16:38:45.519Z,21.90
2022-09-07T16:41:15.567Z,21.80
2022-09-07T16:43:44.249Z,21.60
2022-09-07T16:46:14.680Z,21.40
2022-09-07T16:48:45.477Z,21.30
2022-09-07T16:51:15.615Z,21.20
2022-09-07T16:53:43.725Z,21.00
2022-09-07T16:56:16.524Z,20.90
2022-09-07T16:58:47.051Z,20.70
2022-09-07T17:01:17.641Z,20.60
2022-09-07T17:03:50.370Z,20.40
2022-09-07T17:06:20.320Z,20.20
2022-09-07T17:08:50.541Z,20.10
2022-09-07T17:11:21.496Z,20.00
2022-09-07T17:13:49.838Z,19.80
2022-09-07T17:16:20.227Z,19.60
2022-09-07T17:21:41.885Z,19.30
2022-09-07T17:24:13.420Z,19.20
2022-09-07T17:26:42.830Z,19.00
2022-09-07T17:29:14.209Z,18.90
2022-09-07T17:34:33.482Z,18.60
2022-09-07T17:37:02.523Z,18.40
2022-09-07T17:39:31.245Z,18.30
2022-09-07T17:42:01.107Z,18.20
2022-09-07T17:44:34.685Z,18.20
2022-09-07T17:47:07.553Z,18.10
2022-09-07T17:49:36.951Z,18.00
2022-09-07T17:52:05.589Z,17.90
2022-09-07T17:54:34.552Z,17.90
2022-09-07T17:57:03.129Z,17.80
2022-09-07T18:02:21.318Z,17.70
2022-09-07T18:04:51.661Z,17.60
2022-09-07T18:07:21.525Z,17.60
2022-09-07T18:09:50.558Z,17.50
2022-09-07T18:12:23.161Z,17.50
2022-09-07T18:14:51.532Z,17.40
2022-09-07T18:17:20.572Z,17.30
2022-09-07T18:19:50.486Z,17.20
2022-09-07T18:22:19.604Z,17.20
2022-09-07T18:24:51.562Z,17.10
2022-09-07T18:27:21.128Z,17.10
2022-09-07T18:29:50.190Z,17.10
2022-09-07T18:32:18.569Z,17.00
2022-09-07T18:34:50.541Z,17.00
2022-09-07T18:37:20.598Z,16.90
2022-09-07T18:39:51.628Z,16.90
2022-09-07T18:42:22.172Z,16.90
2022-09-07T18:47:43.605Z,16.70
2022-09-07T18:50:11.820Z,16.70
2022-09-07T18:52:52.580Z,16.60
2022-09-07T18:55:21.466Z,16.60
2022-09-07T18:57:53.175Z,16.60
2022-09-07T19:00:23.492Z,16.50
2022-09-07T19:02:52.624Z,16.50
2022-09-07T19:08:14.692Z,16.50
2022-09-07T19:10:43.508Z,16.40
2022-09-07T19:13:11.610Z,16.30
2022-09-07T19:15:42.797Z,16.30
2022-09-07T19:18:11.598Z,16.30
2022-09-07T19:20:41.551Z,16.30
2022-09-07T19:23:11.508Z,16.30
2022-09-07T19:25:44.764Z,16.30
2022-09-07T19:28:15.514Z,16.30
2022-09-07T19:30:43.604Z,16.20
2022-09-07T19:33:12.661Z,16.30
2022-09-07T19:35:41.593Z,16.30
2022-09-07T19:38:16.318Z,16.30
2022-09-07T19:40:45.506Z,16.30
2022-09-07T19:43:13.607Z,16.30
2022-09-07T19:45:41.697Z,16.30
2022-09-07T19:48:10.618Z,16.30
2022-09-07T19:50:44.324Z,16.30
2022-09-07T19:53:14.854Z,16.30
2022-09-07T19:55:44.600Z,16.20
2022-09-07T19:58:15.679Z,16.20
2022-09-07T20:00:44.598Z,16.20
2022-09-07T20:03:13.630Z,16.20
2022-09-07T20:05:42.607Z,16.20
2022-09-07T20:08:16.257Z,16.20
2022-09-07T20:10:48.563Z,16.20
2022-09-07T20:13:16.668Z,16.10
2022-09-07T20:15:44.746Z,16.10
2022-09-07T20:18:13.680Z,16.10
2022-09-07T20:20:44.101Z,16.00
2022-09-07T20:23:16.298Z,16.00
2022-09-07T20:25:45.538Z,16.00
2022-09-07T20:28:16.638Z,15.90
2022-09-07T20:30:45.699Z,15.90
2022-09-07T20:33:17.660Z,15.80
2022-09-07T20:35:47.745Z,15.80
2022-09-07T20:38:20.151Z,15.80
2022-09-07T20:40:55.619Z,15.80
2022-09-07T20:46:19.313Z,15.80
2022-09-07T20:48:48.546Z,15.70
2022-09-07T20:51:21.210Z,15.70
2022-09-07T20:53:50.313Z,15.60
2022-09-07T20:56:20.656Z,15.60
2022-09-07T20:58:57.752Z,15.60
2022-09-07T21:01:26.054Z,15.60
2022-09-07T21:03:59.918Z,15.50
2022-09-07T21:06:32.697Z,15.50
2022-09-07T21:09:01.664Z,15.40
2022-09-07T21:11:32.141Z,15.50
2022-09-07T21:14:03.249Z,15.40
2022-09-07T21:16:34.857Z,15.40
2022-09-07T21:19:05.599Z,15.30
2022-09-07T21:21:38.862Z,15.20
2022-09-07T21:24:15.444Z,15.20
2022-09-07T21:26:45.240Z,15.10
2022-09-07T21:29:18.912Z,15.10
2022-09-07T21:31:47.861Z,15.10
2022-09-07T21:34:16.705Z,15.00
2022-09-07T21:36:46.091Z,15.00
2022-09-07T21:39:17.726Z,15.00
2022-09-07T21:41:46.467Z,15.00
2022-09-07T21:44:17.411Z,14.90
2022-09-07T21:46:47.640Z,14.90
2022-09-07T21:49:16.699Z,14.90
2022-09-07T21:51:45.712Z,14.80
2022-09-07T21:54:14.593Z,14.80
2022-09-07T21:56:46.517Z,14.80
2022-09-07T21:59:14.992Z,14.80
2022-09-07T22:01:44.719Z,14.70
2022-09-07T22:04:13.644Z,14.70
2022-09-07T22:06:43.972Z,14.70
2022-09-07T22:09:11.952Z,14.70
2022-09-07T22:11:46.073Z,14.70
2022-09-07T22:14:16.368Z,14.70
2022-09-07T22:16:46.643Z,14.60
2022-09-07T22:19:15.323Z,14.60
2022-09-07T22:21:45.264Z,14.60
2022-09-07T22:24:15.795Z,14.60
2022-09-07T22:26:44.709Z,14.60
2022-09-07T22:29:13.709Z,14.70
2022-09-07T22:31:42.824Z,14.60
2022-09-07T22:34:12.277Z,14.60
2022-09-07T22:37:07.915Z,14.60
2022-09-07T22:39:36.671Z,14.50
2022-09-07T22:42:05.714Z,14.50
2022-09-07T22:44:33.851Z,14.50
2022-09-07T22:47:02.598Z,14.40
2022-09-07T22:49:36.244Z,14.40
2022-09-07T22:52:08.694Z,14.40
2022-09-07T22:54:36.795Z,14.30
2022-09-07T22:57:05.686Z,14.40
2022-09-07T22:59:34.742Z,14.40
2022-09-07T23:02:09.744Z,14.30
2022-09-07T23:04:39.893Z,14.20
2022-09-07T23:07:07.971Z,14.20
2022-09-07T23:09:36.778Z,14.20
2022-09-07T23:12:05.845Z,14.10
2022-09-07T23:14:33.906Z,14.10
2022-09-07T23:17:05.740Z,14.00
2022-09-07T23:19:33.685Z,14.00
2022-09-07T23:22:03.770Z,14.00
2022-09-07T23:24:32.636Z,13.90
2022-09-07T23:27:01.746Z,13.90
2022-09-07T23:29:32.771Z,13.80
2022-09-07T23:32:00.743Z,13.80
2022-09-07T23:34:29.700Z,13.80
2022-09-07T23:36:58.644Z,13.70
2022-09-07T23:39:29.818Z,13.70
2022-09-07T23:42:01.302Z,13.60
2022-09-07T23:44:29.420Z,13.60
2022-09-07T23:46:57.735Z,13.60
2022-09-07T23:49:26.769Z,13.50
2022-09-07T23:51:58.422Z,13.50
2022-09-07T23:54:30.730Z,13.50
2022-09-07T23:57:00.281Z,13.40
2022-09-07T23:59:33.892Z,13.40
